Time;durP1;ratioP1;P1;durP2;ratioP2;P2;SDS_P1;SDS_P2;PMS_P1;PMS_P2;Temp;Humidity;BMP_temperature;BMP_pressure;BME280_temperature;BME280_humidity;BME280_pressure;Samples;Min_cycle;Max_cycle;Signal;HPM_P1;HPM_P2
2021/06/17 00:00:55;;;;;;;1.20;0.70;;;;;;;;;;6216035;23;20069;-52
2021/06/17 00:03:22;;;;;;;3.53;1.60;;;;;;;;;;6215746;22;20032;-53
2021/06/17 00:05:48;;;;;;;4.13;1.20;;;;;;;;;;6215981;23;20076;-52
2021/06/17 00:08:19;;;;;;;10.93;1.33;;;;;;;;;;6215794;23;20004;-52
2021/06/17 00:10:58;;;;;;;9.60;5.53;;;;;;;;;;6215881;23;20024;-52
2021/06/17 00:13:36;;;;;;;13.90;7.97;;;;;;;;;;6216036;23;20059;-53
2021/06/17 00:16:05;;;;;;;14.70;6.70;;;;;;;;;;6215931;23;20011;-53
2021/06/17 00:18:32;;;;;;;42.57;27.87;;;;;;;;;;6215605;23;20065;-55
2021/06/17 00:21:03;;;;;;;83.90;47.03;;;;;;;;;;6215758;23;20028;-54
2021/06/17 00:23:31;;;;;;;50.77;34.43;;;;;;;;;;6215829;23;20329;-52
2021/06/17 00:25:58;;;;;;;23.00;14.50;;;;;;;;;;6215744;23;20005;-52
2021/06/17 00:28:26;;;;;;;11.30;6.50;;;;;;;;;;6215638;23;20147;-52
2021/06/17 00:30:53;;;;;;;8.03;4.00;;;;;;;;;;6215887;23;20001;-53
2021/06/17 00:33:24;;;;;;;9.73;3.30;;;;;;;;;;6215624;23;20340;-52
2021/06/17 00:36:11;;;;;;;7.67;3.57;;;;;;;;;;6215459;23;20000;-52
2021/06/17 00:38:39;;;;;;;11.57;4.17;;;;;;;;;;6215671;23;20337;-52
2021/06/17 00:41:06;;;;;;;8.37;3.77;;;;;;;;;;6214966;23;20008;-53
2021/06/17 00:43:38;;;;;;;11.83;3.53;;;;;;;;;;6215551;23;20000;-52
2021/06/17 00:46:14;;;;;;;4.93;3.10;;;;;;;;;;6215519;23;20080;-52
2021/06/17 00:49:00;;;;;;;4.87;2.67;;;;;;;;;;6215352;23;20003;-52
2021/06/17 00:51:36;;;;;;;6.73;2.83;;;;;;;;;;6215403;23;20001;-54
2021/06/17 00:54:04;;;;;;;7.07;2.77;;;;;;;;;;6215490;23;20032;-53
2021/06/17 00:56:37;;;;;;;3.90;1.87;;;;;;;;;;6215275;23;20436;-54
2021/06/17 00:59:07;;;;;;;5.07;2.00;;;;;;;;;;6215404;23;20004;-54
2021/06/17 01:01:36;;;;;;;4.83;2.30;;;;;;;;;;6214947;23;20020;-53
2021/06/17 01:04:16;;;;;;;3.67;2.00;;;;;;;;;;6215587;23;20320;-53
2021/06/17 01:06:50;;;;;;;6.93;2.30;;;;;;;;;;6215559;23;19996;-53
2021/06/17 01:09:38;;;;;;;15.67;8.87;;;;;;;;;;6215437;23;20007;-54
2021/06/17 01:12:12;;;;;;;20.77;9.17;;;;;;;;;;6215432;23;20020;-52
2021/06/17 01:14:50;;;;;;;28.20;13.53;;;;;;;;;;6214866;23;20297;-52
2021/06/17 01:17:26;;;;;;;18.07;7.83;;;;;;;;;;6215467;23;20040;-52
2021/06/17 01:20:02;;;;;;;15.30;5.17;;;;;;;;;;6215424;23;20009;-52
2021/06/17 01:22:49;;;;;;;21.20;7.67;;;;;;;;;;6215080;23;20424;-51
2021/06/17 01:25:28;;;;;;;16.97;7.73;;;;;;;;;;6215156;23;20005;-52
2021/06/17 01:28:11;;;;;;;17.67;6.10;;;;;;;;;;6215323;23;20001;-52
2021/06/17 01:30:50;;;;;;;20.30;5.27;;;;;;;;;;6214812;23;20340;-52
2021/06/17 01:33:42;;;;;;;14.73;4.20;;;;;;;;;;6215224;23;20024;-52
2021/06/17 01:36:28;;;;;;;15.50;4.03;;;;;;;;;;6214646;23;20005;-52
2021/06/17 01:38:56;;;;;;;8.53;2.73;;;;;;;;;;6214967;23;20313;-51
2021/06/17 01:41:33;;;;;;;10.10;2.97;;;;;;;;;;6215255;23;20003;-52
2021/06/17 01:44:11;;;;;;;13.37;3.63;;;;;;;;;;6213256;23;20455;-52
2021/06/17 01:46:39;;;;;;;7.17;3.77;;;;;;;;;;6215024;23;20000;-51
2021/06/17 01:49:06;;;;;;;5.97;4.10;;;;;;;;;;6215245;23;20005;-52
2021/06/17 01:51:33;;;;;;;10.00;3.57;;;;;;;;;;6213601;23;20012;-52
2021/06/17 01:54:01;;;;;;;5.87;3.03;;;;;;;;;;6215111;23;20058;-52
2021/06/17 01:56:32;;;;;;;12.77;4.07;;;;;;;;;;6214967;23;20484;-52
2021/06/17 01:59:05;;;;;;;6.90;3.57;;;;;;;;;;6215096;23;20084;-52
2021/06/17 02:01:32;;;;;;;6.87;4.70;;;;;;;;;;6216093;22;20070;-52
2021/06/17 02:04:01;;;;;;;9.40;3.73;;;;;;;;;;6217132;23;20005;-52
2021/06/17 02:06:29;;;;;;;11.50;4.73;;;;;;;;;;6217120;23;20055;-52
2021/06/17 02:08:57;;;;;;;10.40;4.33;;;;;;;;;;6216955;23;20004;-51
2021/06/17 02:11:25;;;;;;;12.30;5.07;;;;;;;;;;6217083;23;20000;-52
2021/06/17 02:13:52;;;;;;;16.77;4.30;;;;;;;;;;6217103;23;20011;-52
2021/06/17 02:16:20;;;;;;;6.30;3.70;;;;;;;;;;6216991;23;20005;-52
2021/06/17 02:18:48;;;;;;;6.93;4.30;;;;;;;;;;6217277;23;20017;-53
2021/06/17 02:21:16;;;;;;;8.63;3.83;;;;;;;;;;6217077;23;19997;-51
2021/06/17 02:23:45;;;;;;;12.53;3.90;;;;;;;;;;6216895;23;20055;-52
2021/06/17 02:26:14;;;;;;;9.07;3.77;;;;;;;;;;6216970;23;19996;-51
2021/06/17 02:28:45;;;;;;;14.03;4.50;;;;;;;;;;6216787;23;20004;-52
2021/06/17 02:31:14;;;;;;;8.20;3.70;;;;;;;;;;6216959;23;20116;-52
2021/06/17 02:33:41;;;;;;;8.67;3.67;;;;;;;;;;6216840;23;20083;-52
2021/06/17 02:36:08;;;;;;;11.30;3.63;;;;;;;;;;6216789;23;20001;-52
2021/06/17 02:38:36;;;;;;;15.13;3.87;;;;;;;;;;6216728;23;20008;-52
2021/06/17 02:41:07;;;;;;;14.70;4.13;;;;;;;;;;6216900;23;19997;-51
2021/06/17 02:43:35;;;;;;;13.57;3.43;;;;;;;;;;6216852;23;20009;-52
2021/06/17 02:46:02;;;;;;;10.73;3.70;;;;;;;;;;6216693;23;20001;-52
2021/06/17 02:48:29;;;;;;;12.13;4.47;;;;;;;;;;6216658;23;20000;-51
2021/06/17 02:50:56;;;;;;;13.63;4.80;;;;;;;;;;6216602;23;20031;-52
2021/06/17 02:53:23;;;;;;;11.37;4.20;;;;;;;;;;6216733;23;20004;-52
2021/06/17 02:55:50;;;;;;;9.40;4.00;;;;;;;;;;6216726;23;20368;-52
2021/06/17 02:58:30;;;;;;;7.53;3.37;;;;;;;;;;6216367;23;20017;-52
2021/06/17 03:01:06;;;;;;;10.83;3.67;;;;;;;;;;6216758;23;20447;-52
2021/06/17 03:03:34;;;;;;;12.73;3.63;;;;;;;;;;6216256;23;20348;-52
2021/06/17 03:06:04;;;;;;;11.10;4.87;;;;;;;;;;6216570;23;20001;-54
2021/06/17 03:08:35;;;;;;;12.10;4.43;;;;;;;;;;6216797;23;20448;-51
2021/06/17 03:11:03;;;;;;;12.70;5.13;;;;;;;;;;6216640;23;20126;-51
2021/06/17 03:13:32;;;;;;;9.70;4.50;;;;;;;;;;6216048;23;20327;-52
2021/06/17 03:15:59;;;;;;;13.90;4.43;;;;;;;;;;6216490;23;20051;-51
2021/06/17 03:18:26;;;;;;;11.10;4.17;;;;;;;;;;6216187;23;20038;-52
2021/06/17 03:20:53;;;;;;;12.90;4.57;;;;;;;;;;6216346;23;20008;-51
2021/06/17 03:23:21;;;;;;;12.03;4.53;;;;;;;;;;6216386;23;20095;-52
2021/06/17 03:25:50;;;;;;;5.27;3.00;;;;;;;;;;6216379;23;20076;-52
2021/06/17 03:28:17;;;;;;;8.33;3.20;;;;;;;;;;6216229;23;20346;-51
2021/06/17 03:30:46;;;;;;;23.67;3.47;;;;;;;;;;6216332;23;20431;-52
2021/06/17 03:33:13;;;;;;;12.97;4.70;;;;;;;;;;6216368;23;20012;-51
2021/06/17 03:35:40;;;;;;;9.07;3.93;;;;;;;;;;6216197;23;20035;-51
2021/06/17 03:38:10;;;;;;;9.90;3.23;;;;;;;;;;6216165;23;20017;-51
2021/06/17 03:40:38;;;;;;;9.13;3.37;;;;;;;;;;6216361;23;20028;-51
2021/06/17 03:43:05;;;;;;;18.03;4.77;;;;;;;;;;6216324;23;20008;-51
2021/06/17 03:45:32;;;;;;;16.70;4.87;;;;;;;;;;6216194;23;20005;-51
2021/06/17 03:47:59;;;;;;;9.07;3.30;;;;;;;;;;6216002;23;20084;-52
2021/06/17 03:50:26;;;;;;;11.87;4.10;;;;;;;;;;6216377;23;20051;-52
2021/06/17 03:52:55;;;;;;;7.80;3.47;;;;;;;;;;6216140;23;20324;-51
2021/06/17 03:55:23;;;;;;;9.40;3.33;;;;;;;;;;6216168;23;20001;-51
2021/06/17 03:57:52;;;;;;;10.47;3.73;;;;;;;;;;6216032;23;20017;-52
2021/06/17 04:00:19;;;;;;;8.13;4.17;;;;;;;;;;6216058;23;20024;-52
2021/06/17 04:02:54;;;;;;;9.40;3.00;;;;;;;;;;6215643;23;20036;-51
2021/06/17 04:05:21;;;;;;;7.95;3.35;;;;;;;;;;6215991;23;20015;-51
2021/06/17 04:07:48;;;;;;;7.47;3.37;;;;;;;;;;6215905;23;20012;-52
2021/06/17 04:10:17;;;;;;;11.50;3.10;;;;;;;;;;6215911;23;20005;-54
2021/06/17 04:12:45;;;;;;;12.03;3.00;;;;;;;;;;6214367;23;20466;-54
2021/06/17 04:15:12;;;;;;;13.13;3.50;;;;;;;;;;6215705;23;20050;-55
2021/06/17 04:17:42;;;;;;;12.20;3.03;;;;;;;;;;6215591;23;20084;-51
2021/06/17 04:20:16;;;;;;;8.57;3.40;;;;;;;;;;6215426;23;20001;-51
2021/06/17 04:22:45;;;;;;;10.43;3.60;;;;;;;;;;6215471;23;20011;-52
2021/06/17 04:25:13;;;;;;;7.47;3.33;;;;;;;;;;6215127;23;20001;-52
2021/06/17 04:27:43;;;;;;;6.80;3.20;;;;;;;;;;6215354;23;20463;-52
2021/06/17 04:30:10;;;;;;;45.30;3.80;;;;;;;;;;6215427;23;20455;-52
2021/06/17 04:32:40;;;;;;;6.53;2.80;;;;;;;;;;6215513;23;20005;-52
2021/06/17 04:35:07;;;;;;;7.70;2.70;;;;;;;;;;6215332;23;20381;-52
2021/06/17 04:37:34;;;;;;;6.47;2.50;;;;;;;;;;6215344;23;20020;-52
2021/06/17 04:40:01;;;;;;;7.50;2.23;;;;;;;;;;6215705;23;20000;-52
2021/06/17 04:42:28;;;;;;;8.27;3.80;;;;;;;;;;6215590;23;20008;-52
2021/06/17 04:44:55;;;;;;;8.47;2.50;;;;;;;;;;6215654;23;20324;-55
2021/06/17 04:47:23;;;;;;;7.70;2.47;;;;;;;;;;6215492;23;20004;-52
2021/06/17 04:49:50;;;;;;;10.23;2.73;;;;;;;;;;6215469;23;20004;-52
2021/06/17 04:52:21;;;;;;;7.13;2.40;;;;;;;;;;6215666;23;20111;-53
2021/06/17 04:54:48;;;;;;;5.43;2.70;;;;;;;;;;6215579;23;20042;-54
2021/06/17 04:57:15;;;;;;;8.10;2.50;;;;;;;;;;6215511;23;20012;-52
2021/06/17 04:59:41;;;;;;;9.53;2.70;;;;;;;;;;6215462;23;20075;-52
2021/06/17 05:02:08;;;;;;;5.23;2.67;;;;;;;;;;6215134;22;20009;-52
2021/06/17 05:04:36;;;;;;;8.10;2.70;;;;;;;;;;6215401;23;20435;-51
2021/06/17 05:12:15;;;;;;;7.32;3.53;;;;;;;;;;6215558;23;20018;-51
2021/06/17 05:14:42;;;;;;;5.57;2.40;;;;;;;;;;6215344;23;20030;-52
2021/06/17 05:17:09;;;;;;;4.33;2.17;;;;;;;;;;6215260;23;20087;-52
2021/06/17 05:19:35;;;;;;;6.13;2.80;;;;;;;;;;6215376;23;20001;-52
2021/06/17 05:22:03;;;;;;;8.53;2.60;;;;;;;;;;6215226;23;20066;-51
2021/06/17 05:24:30;;;;;;;7.00;2.87;;;;;;;;;;6215193;23;20068;-52
2021/06/17 05:26:56;;;;;;;19.90;2.73;;;;;;;;;;6215481;23;20005;-52
2021/06/17 05:29:23;;;;;;;9.57;2.70;;;;;;;;;;6215196;23;20046;-52
2021/06/17 05:31:50;;;;;;;8.53;2.97;;;;;;;;;;6215279;23;20000;-52
2021/06/17 05:34:17;;;;;;;5.80;2.40;;;;;;;;;;6215140;23;20001;-52
2021/06/17 05:36:43;;;;;;;6.30;2.33;;;;;;;;;;6214829;23;20084;-52
2021/06/17 05:39:10;;;;;;;4.40;2.17;;;;;;;;;;6215173;23;20020;-52
2021/06/17 05:41:37;;;;;;;11.20;2.73;;;;;;;;;;6215245;23;20070;-52
2021/06/17 05:44:04;;;;;;;11.80;3.10;;;;;;;;;;6215161;23;20359;-51
2021/06/17 05:46:33;;;;;;;5.03;2.30;;;;;;;;;;6215297;23;19996;-52
2021/06/17 05:49:00;;;;;;;7.57;2.30;;;;;;;;;;6215244;23;19996;-51
2021/06/17 05:51:27;;;;;;;4.67;2.30;;;;;;;;;;6215291;23;20375;-52
2021/06/17 05:53:54;;;;;;;4.10;2.20;;;;;;;;;;6215095;23;20421;-52
2021/06/17 05:56:20;;;;;;;9.33;2.53;;;;;;;;;;6215214;23;20004;-52
2021/06/17 05:58:47;;;;;;;8.47;3.03;;;;;;;;;;6215056;23;20067;-51
2021/06/17 06:01:14;;;;;;;3.50;2.27;;;;;;;;;;6215077;23;20309;-52
2021/06/17 06:03:41;;;;;;;8.00;2.87;;;;;;;;;;6214937;23;20017;-51
2021/06/17 06:06:08;;;;;;;8.73;3.47;;;;;;;;;;6214962;23;20005;-52
2021/06/17 06:08:35;;;;;;;6.47;2.40;;;;;;;;;;6215444;23;20004;-51
2021/06/17 06:11:01;;;;;;;6.10;2.50;;;;;;;;;;6215187;23;20027;-52
2021/06/17 06:13:30;;;;;;;5.00;2.27;;;;;;;;;;6214945;23;20079;-51
2021/06/17 06:15:57;;;;;;;3.33;2.20;;;;;;;;;;6215159;23;20455;-51
2021/06/17 06:18:27;;;;;;;6.77;2.30;;;;;;;;;;6214991;23;20015;-52
2021/06/17 06:20:57;;;;;;;4.30;1.90;;;;;;;;;;6215132;23;20024;-51
2021/06/17 06:23:28;;;;;;;4.80;2.10;;;;;;;;;;6215001;23;20087;-51
2021/06/17 06:25:55;;;;;;;6.43;1.87;;;;;;;;;;6214965;23;20024;-51
2021/06/17 06:28:24;;;;;;;4.70;1.90;;;;;;;;;;6214988;23;20005;-51
2021/06/17 06:30:51;;;;;;;4.07;2.00;;;;;;;;;;6214888;23;20047;-51
2021/06/17 06:33:19;;;;;;;3.43;1.97;;;;;;;;;;6214874;23;20013;-52
2021/06/17 06:35:46;;;;;;;4.57;1.87;;;;;;;;;;6214892;23;20005;-51
2021/06/17 06:38:13;;;;;;;3.10;2.03;;;;;;;;;;6214767;23;20047;-51
2021/06/17 06:40:40;;;;;;;3.07;1.87;;;;;;;;;;6214766;23;20008;-52
2021/06/17 06:43:08;;;;;;;7.13;1.90;;;;;;;;;;6214923;23;20039;-52
2021/06/17 06:45:35;;;;;;;6.27;2.43;;;;;;;;;;6214890;23;20004;-51
2021/06/17 06:48:02;;;;;;;5.43;1.70;;;;;;;;;;6215704;23;20004;-52
2021/06/17 06:50:29;;;;;;;4.33;1.60;;;;;;;;;;6215214;23;20084;-52
2021/06/17 06:52:56;;;;;;;5.23;1.83;;;;;;;;;;6216679;23;20008;-52
2021/06/17 06:55:23;;;;;;;5.40;2.20;;;;;;;;;;6216654;23;20003;-51
2021/06/17 06:57:50;;;;;;;4.07;1.80;;;;;;;;;;6216680;23;20013;-52
2021/06/17 07:00:18;;;;;;;4.00;1.93;;;;;;;;;;6216767;23;20360;-52
2021/06/17 07:02:45;;;;;;;4.33;1.80;;;;;;;;;;6216347;22;20016;-52
2021/06/17 07:05:12;;;;;;;2.63;1.83;;;;;;;;;;6216600;23;20031;-52
2021/06/17 07:07:40;;;;;;;5.10;2.10;;;;;;;;;;6216653;23;20004;-52
2021/06/17 07:10:07;;;;;;;7.73;2.43;;;;;;;;;;6216936;23;20344;-52
2021/06/17 07:12:34;;;;;;;3.77;2.07;;;;;;;;;;6216702;23;20001;-51
2021/06/17 07:15:02;;;;;;;5.43;2.13;;;;;;;;;;6216523;23;20055;-52
2021/06/17 07:17:29;;;;;;;4.33;2.00;;;;;;;;;;6216680;23;20005;-52
2021/06/17 07:19:56;;;;;;;3.00;1.60;;;;;;;;;;6216573;23;20005;-51
2021/06/17 07:22:23;;;;;;;3.40;1.83;;;;;;;;;;6216317;23;20008;-52
2021/06/17 07:24:50;;;;;;;3.63;1.90;;;;;;;;;;6216360;23;20028;-51
2021/06/17 07:27:17;;;;;;;2.47;1.80;;;;;;;;;;6216342;23;20376;-52
2021/06/17 07:29:44;;;;;;;4.90;2.10;;;;;;;;;;6216317;23;20005;-52
2021/06/17 07:32:10;;;;;;;2.47;1.47;;;;;;;;;;6216237;23;20005;-52
2021/06/17 07:34:37;;;;;;;2.90;1.80;;;;;;;;;;6216200;23;20005;-52
2021/06/17 07:37:04;;;;;;;4.97;2.10;;;;;;;;;;6216141;23;20015;-52
2021/06/17 07:39:31;;;;;;;10.27;2.10;;;;;;;;;;6216219;23;20005;-52
2021/06/17 07:41:58;;;;;;;4.70;1.80;;;;;;;;;;6216235;23;20460;-51
2021/06/17 07:44:25;;;;;;;6.37;1.83;;;;;;;;;;6216160;23;20012;-51
2021/06/17 07:46:52;;;;;;;5.63;2.20;;;;;;;;;;6216067;23;20005;-52
2021/06/17 07:49:18;;;;;;;5.87;1.90;;;;;;;;;;6216238;23;20001;-52
2021/06/17 07:51:46;;;;;;;4.17;2.00;;;;;;;;;;6216230;23;20023;-51
2021/06/17 07:54:12;;;;;;;2.80;1.77;;;;;;;;;;6216085;23;20009;-52
2021/06/17 07:56:39;;;;;;;12.83;2.03;;;;;;;;;;6216211;23;20004;-52
2021/06/17 07:59:06;;;;;;;4.00;1.83;;;;;;;;;;6215716;23;20020;-51
2021/06/17 08:01:32;;;;;;;6.20;1.70;;;;;;;;;;6216057;23;20004;-51
2021/06/17 08:04:05;;;;;;;3.73;1.90;;;;;;;;;;6215696;23;20024;-52
2021/06/17 08:06:31;;;;;;;3.30;2.10;;;;;;;;;;6216118;23;20085;-52
2021/06/17 08:09:00;;;;;;;6.87;2.20;;;;;;;;;;6216012;23;20454;-51
2021/06/17 08:11:29;;;;;;;4.07;1.83;;;;;;;;;;6216068;23;20027;-52
2021/06/17 08:20:04;;;;;;;3.80;1.90;;;;;;;;;;6216015;23;20336;-52
2021/06/17 08:22:30;;;;;;;3.70;2.13;;;;;;;;;;6215730;23;20456;-52
2021/06/17 08:24:57;;;;;;;5.47;2.00;;;;;;;;;;6215725;23;20004;-51
2021/06/17 08:27:24;;;;;;;4.30;1.60;;;;;;;;;;6215714;23;20329;-51
2021/06/17 08:29:50;;;;;;;5.23;2.33;;;;;;;;;;6216245;23;20004;-51
2021/06/17 08:32:17;;;;;;;3.43;2.00;;;;;;;;;;6215728;23;20001;-51
2021/06/17 08:34:44;;;;;;;4.33;1.80;;;;;;;;;;6215528;23;20455;-51
2021/06/17 08:37:11;;;;;;;6.20;1.77;;;;;;;;;;6215674;23;20375;-51
2021/06/17 08:39:37;;;;;;;3.47;1.80;;;;;;;;;;6215669;23;20328;-51
2021/06/17 08:42:04;;;;;;;4.43;2.23;;;;;;;;;;6215758;23;20424;-54
2021/06/17 08:44:32;;;;;;;2.70;2.00;;;;;;;;;;6215660;23;20055;-51
2021/06/17 08:47:12;;;;;;;3.50;1.90;;;;;;;;;;6215490;23;20001;-51
2021/06/17 08:52:23;;;;;;;6.20;2.10;;;;;;;;;;6215686;23;20047;-52
2021/06/17 08:54:50;;;;;;;5.93;2.20;;;;;;;;;;6215437;23;20000;-52
2021/06/17 08:57:17;;;;;;;4.17;1.83;;;;;;;;;;6215444;23;20016;-51
2021/06/17 08:59:45;;;;;;;2.40;1.70;;;;;;;;;;6215535;23;20428;-52
2021/06/17 09:02:12;;;;;;;3.67;2.53;;;;;;;;;;6215266;23;20008;-52
2021/06/17 09:04:39;;;;;;;8.70;1.90;;;;;;;;;;6215416;23;20009;-51
2021/06/17 09:07:13;;;;;;;3.10;1.97;;;;;;;;;;6215451;23;20005;-52
2021/06/17 09:09:43;;;;;;;3.60;1.60;;;;;;;;;;6215278;23;20012;-52
2021/06/17 09:12:12;;;;;;;2.77;1.60;;;;;;;;;;6215227;23;20332;-52
2021/06/17 09:14:39;;;;;;;3.93;2.10;;;;;;;;;;6215546;23;20298;-51
2021/06/17 09:17:07;;;;;;;3.00;1.90;;;;;;;;;;6215355;23;20004;-51
2021/06/17 09:19:38;;;;;;;3.70;1.60;;;;;;;;;;6215397;23;20001;-51
2021/06/17 09:22:05;;;;;;;5.27;2.00;;;;;;;;;;6213761;23;20462;-52
2021/06/17 09:24:34;;;;;;;3.10;1.80;;;;;;;;;;6215242;23;20012;-51
2021/06/17 09:27:20;;;;;;;3.67;1.77;;;;;;;;;;6215314;23;20001;-51
2021/06/17 09:29:48;;;;;;;4.07;2.30;;;;;;;;;;6215384;23;20005;-51
2021/06/17 09:32:19;;;;;;;3.20;1.77;;;;;;;;;;6215308;23;20005;-51
2021/06/17 09:34:46;;;;;;;4.13;1.60;;;;;;;;;;6215577;23;20028;-52
2021/06/17 09:37:28;;;;;;;3.23;2.00;;;;;;;;;;6215032;23;20332;-52
2021/06/17 09:39:55;;;;;;;4.03;2.03;;;;;;;;;;6215331;23;20005;-51
2021/06/17 09:42:28;;;;;;;6.73;3.10;;;;;;;;;;6215281;23;20022;-52
2021/06/17 09:44:55;;;;;;;3.87;2.10;;;;;;;;;;6215199;23;20004;-51
2021/06/17 09:47:22;;;;;;;3.17;1.83;;;;;;;;;;6215223;23;20004;-51
2021/06/17 09:49:51;;;;;;;4.00;2.27;;;;;;;;;;6215142;23;20005;-51
2021/06/17 09:52:18;;;;;;;3.27;2.40;;;;;;;;;;6215146;23;20070;-51
2021/06/17 09:54:45;;;;;;;4.53;2.23;;;;;;;;;;6215461;23;20048;-51
2021/06/17 09:57:23;;;;;;;5.13;2.10;;;;;;;;;;6214905;23;20012;-52
2021/06/17 09:59:55;;;;;;;4.77;2.63;;;;;;;;;;6215202;23;20001;-52
2021/06/17 10:02:31;;;;;;;3.80;2.20;;;;;;;;;;6214711;23;20334;-52
2021/06/17 10:05:22;;;;;;;3.60;2.33;;;;;;;;;;6215145;23;20440;-51
2021/06/17 10:07:49;;;;;;;4.03;2.70;;;;;;;;;;6215006;23;20015;-51
2021/06/17 10:10:18;;;;;;;10.63;2.73;;;;;;;;;;6214972;23;20313;-52
2021/06/17 10:12:45;;;;;;;2.90;2.00;;;;;;;;;;6215231;23;20013;-52
2021/06/17 10:15:12;;;;;;;8.97;2.37;;;;;;;;;;6214974;23;20054;-51
2021/06/17 10:17:39;;;;;;;4.27;2.40;;;;;;;;;;6214925;23;20040;-51
2021/06/17 10:20:10;;;;;;;2.63;1.63;;;;;;;;;;6215128;23;20044;-52
2021/06/17 10:22:38;;;;;;;5.33;2.27;;;;;;;;;;6215513;23;20008;-51
2021/06/17 10:25:09;;;;;;;3.77;2.17;;;;;;;;;;6217165;23;20004;-51
2021/06/17 10:27:36;;;;;;;3.57;2.13;;;;;;;;;;6216877;23;20009;-52
2021/06/17 10:30:04;;;;;;;4.17;2.30;;;;;;;;;;6216956;23;20442;-52
2021/06/17 10:32:41;;;;;;;8.40;1.93;;;;;;;;;;6216921;23;20031;-52
2021/06/17 10:35:09;;;;;;;2.57;1.83;;;;;;;;;;6215228;23;20432;-52
2021/06/17 10:37:56;;;;;;;2.60;1.30;;;;;;;;;;6216743;23;20081;-52
2021/06/17 10:40:25;;;;;;;3.53;1.63;;;;;;;;;;6217062;23;20481;-52
2021/06/17 10:42:55;;;;;;;4.20;1.70;;;;;;;;;;6217016;23;20007;-51
2021/06/17 10:45:34;;;;;;;5.00;1.83;;;;;;;;;;6216835;23;20000;-52
2021/06/17 10:48:01;;;;;;;4.30;1.90;;;;;;;;;;6216860;23;20000;-51
2021/06/17 10:50:32;;;;;;;4.43;1.80;;;;;;;;;;6216758;23;20435;-52
2021/06/17 10:53:17;;;;;;;5.07;1.87;;;;;;;;;;6216771;23;20011;-51
2021/06/17 10:56:15;;;;;;;3.47;2.05;;;;;;;;;;6216779;23;20443;-52
2021/06/17 10:58:44;;;;;;;3.00;1.60;;;;;;;;;;6215854;23;20016;-51
2021/06/17 11:01:30;;;;;;;4.77;1.50;;;;;;;;;;6216682;23;19996;-51
2021/06/17 11:04:07;;;;;;;2.67;1.60;;;;;;;;;;6216329;22;20066;-52
2021/06/17 11:07:00;;;;;;;5.50;1.63;;;;;;;;;;6216444;23;20134;-52
2021/06/17 11:09:36;;;;;;;2.97;1.67;;;;;;;;;;6171045;23;20001;-51
2021/06/17 11:12:03;;;;;;;4.93;1.63;;;;;;;;;;6216725;23;20005;-51
2021/06/17 11:14:39;;;;;;;4.03;1.40;;;;;;;;;;6216557;23;20000;-52
2021/06/17 11:17:24;;;;;;;5.80;1.80;;;;;;;;;;6216615;23;20080;-52
2021/06/17 11:20:00;;;;;;;4.47;1.60;;;;;;;;;;6216460;23;20009;-52
2021/06/17 11:22:36;;;;;;;2.83;1.43;;;;;;;;;;6216518;23;20028;-51
2021/06/17 11:25:22;;;;;;;3.90;1.47;;;;;;;;;;6216369;23;20007;-52
2021/06/17 11:27:58;;;;;;;3.90;1.47;;;;;;;;;;6216425;23;20416;-51
2021/06/17 11:30:41;;;;;;;2.10;1.50;;;;;;;;;;6216271;23;20078;-51
2021/06/17 11:33:20;;;;;;;3.37;1.70;;;;;;;;;;6216049;23;20318;-52
2021/06/17 11:35:47;;;;;;;2.93;1.43;;;;;;;;;;6216529;23;20332;-52
2021/06/17 11:38:14;;;;;;;6.63;1.50;;;;;;;;;;6216218;23;20236;-52
2021/06/17 11:40:41;;;;;;;4.23;1.63;;;;;;;;;;6216321;23;20004;-51
2021/06/17 11:43:08;;;;;;;3.03;1.50;;;;;;;;;;6216266;23;20340;-51
2021/06/17 11:45:36;;;;;;;7.77;2.73;;;;;;;;;;6216202;23;20226;-52
2021/06/17 11:48:06;;;;;;;4.47;1.60;;;;;;;;;;6216057;23;20005;-51
2021/06/17 11:50:34;;;;;;;1.97;1.33;;;;;;;;;;6216138;23;20082;-51
2021/06/17 11:53:02;;;;;;;3.27;1.60;;;;;;;;;;6216272;23;20106;-51
2021/06/17 11:55:28;;;;;;;4.93;1.60;;;;;;;;;;6216223;23;20000;-52
2021/06/17 11:57:55;;;;;;;6.50;3.50;;;;;;;;;;6215831;23;20491;-52
2021/06/17 12:00:31;;;;;;;8.63;4.70;;;;;;;;;;6216101;23;20000;-52
2021/06/17 12:02:58;;;;;;;10.60;4.73;;;;;;;;;;6215705;22;20070;-52
2021/06/17 12:05:27;;;;;;;9.57;4.40;;;;;;;;;;6216310;23;20009;-52
2021/06/17 12:07:59;;;;;;;7.80;3.60;;;;;;;;;;6215939;23;20011;-52
2021/06/17 12:10:27;;;;;;;3.83;2.17;;;;;;;;;;6215953;23;20005;-51
2021/06/17 12:12:55;;;;;;;4.87;1.80;;;;;;;;;;6216176;23;20055;-52
2021/06/17 12:15:23;;;;;;;3.97;1.93;;;;;;;;;;6216126;23;20008;-52
2021/06/17 12:18:25;;;;;;;3.73;1.60;;;;;;;;;;6215786;23;20016;-52
2021/06/17 12:21:04;;;;;;;4.25;1.63;;;;;;;;;;6213103;23;20013;-52
2021/06/17 12:23:54;;;;;;;2.00;1.30;;;;;;;;;;6216100;23;20000;-52
2021/06/17 12:26:30;;;;;;;2.87;1.50;;;;;;;;;;6214379;23;20437;-52
2021/06/17 12:29:12;;;;;;;3.53;2.50;;;;;;;;;;6215623;23;20001;-52
2021/06/17 12:31:40;;;;;;;6.17;2.87;;;;;;;;;;6216020;23;20000;-52
2021/06/17 12:34:19;;;;;;;3.70;2.30;;;;;;;;;;6215871;23;20008;-52
2021/06/17 12:36:58;;;;;;;4.97;3.07;;;;;;;;;;6215516;23;20032;-52
2021/06/17 12:39:25;;;;;;;3.97;2.20;;;;;;;;;;6216248;23;20012;-52
2021/06/17 12:41:52;;;;;;;3.10;2.07;;;;;;;;;;6215802;23;20005;-52
2021/06/17 12:44:37;;;;;;;4.77;1.93;;;;;;;;;;6215601;23;20067;-52
2021/06/17 12:47:24;;;;;;;3.38;2.20;;;;;;;;;;6214559;23;20005;-53
2021/06/17 12:52:59;;;;;;;4.73;3.03;;;;;;;;;;6215661;23;20036;-52
2021/06/17 12:55:54;;;;;;;6.47;2.30;;;;;;;;;;6215597;23;20381;-52
2021/06/17 12:58:27;;;;;;;8.05;3.00;;;;;;;;;;6215354;23;20397;-53
2021/06/17 13:01:03;;;;;;;4.83;2.43;;;;;;;;;;6214383;23;20008;-52
2021/06/17 13:03:39;;;;;;;5.63;2.10;;;;;;;;;;6215186;23;20038;-52
2021/06/17 13:06:15;;;;;;;3.43;1.80;;;;;;;;;;6215335;23;20013;-52
2021/06/17 13:08:48;;;;;;;2.60;1.83;;;;;;;;;;6215345;23;20008;-52
2021/06/17 13:11:29;;;;;;;5.73;1.90;;;;;;;;;;6215548;23;20510;-52
2021/06/17 13:14:14;;;;;;;3.10;1.80;;;;;;;;;;6215478;23;20008;-52
2021/06/17 13:16:45;;;;;;;3.20;2.00;;;;;;;;;;6212884;23;20332;-52
2021/06/17 13:19:12;;;;;;;2.93;2.00;;;;;;;;;;6212664;23;20016;-52
2021/06/17 13:21:39;;;;;;;2.43;1.60;;;;;;;;;;6215366;23;20063;-52
2021/06/17 13:24:17;;;;;;;2.97;1.73;;;;;;;;;;6215383;23;20009;-52
2021/06/17 13:26:43;;;;;;;3.33;1.53;;;;;;;;;;6215405;23;20035;-52
2021/06/17 13:29:15;;;;;;;2.17;1.40;;;;;;;;;;6215757;23;20011;-52
2021/06/17 13:31:42;;;;;;;2.37;1.77;;;;;;;;;;6215399;23;20302;-52
2021/06/17 13:34:10;;;;;;;2.73;1.70;;;;;;;;;;6215123;23;20012;-52
2021/06/17 13:36:50;;;;;;;1.90;1.40;;;;;;;;;;6215202;23;20127;-53
2021/06/17 13:39:21;;;;;;;2.13;1.50;;;;;;;;;;6211612;23;20437;-52
2021/06/17 13:41:49;;;;;;;3.50;1.63;;;;;;;;;;6214759;23;20015;-53
2021/06/17 13:44:16;;;;;;;2.33;1.40;;;;;;;;;;6215259;23;20428;-53
2021/06/17 13:46:43;;;;;;;2.93;1.50;;;;;;;;;;6215342;23;20063;-52
2021/06/17 13:49:09;;;;;;;4.73;1.67;;;;;;;;;;6215308;23;20005;-53
2021/06/17 13:51:36;;;;;;;2.87;1.67;;;;;;;;;;6215175;23;20028;-52
2021/06/17 13:54:03;;;;;;;2.80;1.63;;;;;;;;;;6215140;23;20001;-52
2021/06/17 13:56:30;;;;;;;3.33;1.60;;;;;;;;;;6215579;23;20139;-52
2021/06/17 13:58:56;;;;;;;1.90;1.40;;;;;;;;;;6217100;23;20019;-52
2021/06/17 14:01:35;;;;;;;3.70;1.90;;;;;;;;;;6217315;23;20023;-52
2021/06/17 14:04:17;;;;;;;2.13;1.60;;;;;;;;;;6216001;22;20023;-52
2021/06/17 14:06:57;;;;;;;2.83;1.80;;;;;;;;;;6216591;23;20395;-52
2021/06/17 14:09:34;;;;;;;3.73;1.73;;;;;;;;;;6216056;23;20054;-52
2021/06/17 14:12:15;;;;;;;2.47;1.30;;;;;;;;;;6216925;23;20011;-51
2021/06/17 14:14:57;;;;;;;1.80;1.23;;;;;;;;;;6215780;23;20000;-51
2021/06/17 14:17:30;;;;;;;3.23;1.23;;;;;;;;;;6217029;23;20054;-51
2021/06/17 14:19:56;;;;;;;3.03;1.63;;;;;;;;;;6215275;23;20004;-52
2021/06/17 14:22:28;;;;;;;2.57;1.60;;;;;;;;;;6216934;23;20046;-51
2021/06/17 14:24:55;;;;;;;4.13;1.77;;;;;;;;;;6215274;23;20013;-53
2021/06/17 14:27:35;;;;;;;3.67;1.50;;;;;;;;;;6217059;23;20020;-52
2021/06/17 14:30:25;;;;;;;2.53;1.63;;;;;;;;;;6215314;23;20004;-52
2021/06/17 14:33:02;;;;;;;4.77;2.07;;;;;;;;;;6216897;23;20368;-52
2021/06/17 14:35:38;;;;;;;2.53;1.90;;;;;;;;;;6216526;23;20005;-52
2021/06/17 14:38:14;;;;;;;5.37;1.97;;;;;;;;;;6214540;23;20017;-52
2021/06/17 14:40:52;;;;;;;3.13;1.90;;;;;;;;;;6216275;23;20005;-52
2021/06/17 14:43:43;;;;;;;4.67;1.90;;;;;;;;;;6215300;23;20127;-52
2021/06/17 14:46:23;;;;;;;3.23;1.87;;;;;;;;;;6214448;23;20424;-52
2021/06/17 14:48:54;;;;;;;4.90;1.70;;;;;;;;;;6216920;23;20007;-53
2021/06/17 14:51:39;;;;;;;3.70;1.90;;;;;;;;;;6216801;23;20302;-52
2021/06/17 14:54:20;;;;;;;2.85;1.73;;;;;;;;;;6216450;23;20055;-51
2021/06/17 14:56:58;;;;;;;2.80;1.57;;;;;;;;;;6216807;23;20020;-52
2021/06/17 14:59:37;;;;;;;4.30;1.77;;;;;;;;;;6213839;23;20063;-53
2021/06/17 15:02:16;;;;;;;4.47;2.20;;;;;;;;;;6214706;23;20391;-52
2021/06/17 15:04:56;;;;;;;4.40;1.80;;;;;;;;;;6212736;22;20020;-52
2021/06/17 15:07:28;;;;;;;5.60;2.40;;;;;;;;;;6215969;23;20063;-51
2021/06/17 15:10:30;;;;;;;5.17;2.50;;;;;;;;;;6216023;23;20008;-52
2021/06/17 15:12:57;;;;;;;4.23;2.50;;;;;;;;;;6214544;23;20000;-52
2021/06/17 15:15:31;;;;;;;2.77;1.97;;;;;;;;;;6214924;23;20067;-52
2021/06/17 15:18:14;;;;;;;7.00;1.98;;;;;;;;;;6213165;23;20146;-52
2021/06/17 15:20:45;;;;;;;4.07;2.53;;;;;;;;;;6214770;23;20325;-53